Kristina — V7ZT9 — position and weather

sailwx.info

Track history (hours):
 
Tides and Currents Weather Stations Pressure Air Temp Water Temp Dewpoint Dewpoint Depression Visibility Wind Speed Wind Dir Waves Ship Positions

Kristina

Last reported at 2018-Jun-05 17:27 UTC. Time now 2018-Jun-18 15:12 UTC.
Position N 38°32' W 124°04'.
Warning: this ship's position is 12 days out of date.

Length 270 m; draft 10.4 m.

Type: Ship (hazmat cat A). MMSI: 538004913.

Date/timePositionNaut miles runAvg speedWind from/ knotsBaromVisibWave heightAir tempDewpointWater temp
2018-Jun-05 17:27N 38°32' W 124°04'612.7
2018-Jun-05 17:00N 38°29' W 123°58'612.7
2018-Jun-05 16:30N 38°26' W 123°51'613.0
2018-Jun-05 16:00N 38°22' W 123°44'612.9
2018-Jun-05 15:30N 38°19' W 123°38'612.8
2018-Jun-05 15:00N 38°15' W 123°31'612.6
2018-Jun-05 14:30N 38°11' W 123°24'611.8
2018-Jun-05 14:00N 38°08' W 123°18'612.3
2018-Jun-05 13:30N 38°03' W 123°13'612.5
2018-Jun-05 13:00N 37°58' W 123°08'612.8
2018-Jun-05 12:30N 37°55' W 123°01'612.8
2018-Jun-05 12:01N 37°52' W 122°54'612.9
2018-Jun-05 11:30N 37°49' W 122°47'611.8
2018-Jun-05 11:00N 37°46' W 122°41'713.3
2018-Jun-05 10:30N 37°48' W 122°33'713.7
2018-Jun-05 10:00N 37°50' W 122°25'510.1
2018-Jun-05 09:30N 37°48' W 122°19'0 0.7
2018-Jun-05 09:00N 37°48' W 122°19'0 0.0
2018-Jun-05 08:30N 37°48' W 122°19'0 0.0
2018-Jun-05 08:00N 37°48' W 122°19'0 0.0
2018-Jun-05 07:30N 37°48' W 122°19'0 0.0
2018-Jun-05 07:00N 37°48' W 122°19'0 0.0
2018-Jun-05 06:30N 37°48' W 122°19'0 0.0
2018-Jun-05 06:00N 37°48' W 122°19'0 0.0
2018-Jun-05 05:30N 37°48' W 122°19'0 0.0
2018-Jun-05 05:00N 37°48' W 122°19'0 0.0
2018-Jun-05 04:30N 37°48' W 122°19'0 0.0
2018-Jun-05 04:00N 37°48' W 122°19'0 0.0
2018-Jun-05 03:30N 37°48' W 122°19'0 0.0
2018-Jun-05 03:00N 37°48' W 122°19'0 0.0
2018-Jun-05 02:30N 37°48' W 122°19'0 0.0
2018-Jun-05 02:00N 37°48' W 122°19'0 0.0
2018-Jun-05 01:30N 37°48' W 122°19'0 0.0
2018-Jun-05 01:00N 37°48' W 122°19'0 0.0
2018-Jun-05 00:30N 37°48' W 122°19'0 0.0
2018-Jun-05 00:00N 37°48' W 122°19'0 0.0
2018-Jun-04 23:30N 37°48' W 122°19'1 1.9
2018-Jun-04 23:00N 37°48' W 122°17'2 3.6
2018-Jun-04 22:30N 37°48' W 122°20'4 8.4
2018-Jun-04 22:00N 37°49' W 122°25'713.4
2018-Jun-04 21:30N 37°47' W 122°33'713.7
2018-Jun-04 21:00N 37°44' W 122°41'4 8.9
2018-Jun-04 20:30N 37°40' W 122°40'714.5
2018-Jun-04 20:01N 37°33' W 122°40'815.1
2018-Jun-04 19:31N 37°25' W 122°40'815.2
2018-Jun-04 19:00N 37°18' W 122°40'917.1
2018-Jun-04 18:31N 37°09' W 122°39'917.5
2018-Jun-04 18:01N 37°01' W 122°35'917.9
2018-Jun-04 17:31N 36°53' W 122°30'917.7
2018-Jun-04 17:01N 36°45' W 122°26'1317.7
2018-Jun-04 16:16N 36°33' W 122°19'917.6
2018-Jun-04 15:46N 36°25' W 122°15'1017.8
2018-Jun-04 15:14N 36°16' W 122°10'817.9
2018-Jun-04 14:46N 36°08' W 122°06'3918.0
2018-Jun-04 12:35N 35°34' W 121°41'218.2
2018-Jun-04 12:30N 35°33' W 121°40'918.2
2018-Jun-04 12:01N 35°25' W 121°35'918.1
2018-Jun-04 11:31N 35°18' W 121°29'918.1
2018-Jun-04 11:01N 35°10' W 121°23'917.7
2018-Jun-04 10:31N 35°02' W 121°18'918.0
2018-Jun-04 10:01N 34°54' W 121°12'918.1
2018-Jun-04 09:31N 34°47' W 121°07'918.4
2018-Jun-04 09:01N 34°39' W 121°01'918.4
2018-Jun-04 08:31N 34°31' W 120°56'917.5
2018-Jun-04 08:00N 34°25' W 120°47'918.1
2018-Jun-04 07:29N 34°23' W 120°36'917.8
2018-Jun-04 07:00N 34°21' W 120°26'1218.1
2018-Jun-04 06:22N 34°17' W 120°13'719.0
2018-Jun-04 06:00N 34°16' W 120°05'918.4
2018-Jun-04 05:31N 34°14' W 119°54'918.0
2018-Jun-04 05:00N 34°11' W 119°43'918.0
2018-Jun-04 04:31N 34°08' W 119°33'918.2
2018-Jun-04 04:01N 34°06' W 119°23'917.9
2018-Jun-04 03:31N 34°03' W 119°12'917.3
2018-Jun-04 03:00N 33°59' W 119°03'611.5
2018-Jun-04 02:30N 33°56' W 118°57'611.6
2018-Jun-04 02:00N 33°53' W 118°51'611.7
2018-Jun-04 01:30N 33°50' W 118°45'611.5
2018-Jun-04 00:58N 33°47' W 118°39'612.0
2018-Jun-04 00:27N 33°44' W 118°32'511.5
2018-Jun-04 00:00N 33°41' W 118°27'511.2
2018-Jun-03 23:30N 33°38' W 118°21'510.8
2018-Jun-03 23:00N 33°39' W 118°15'5 9.4
2018-Jun-03 22:30N 33°43' W 118°11'2 4.0
2018-Jun-03 21:59N 33°44' W 118°09'0 0.0
2018-Jun-03 21:29N 33°44' W 118°09'0 0.0
2018-Jun-03 20:59N 33°44' W 118°09'0 0.0
2018-Jun-03 20:29N 33°44' W 118°09'0 0.0
2018-Jun-03 19:59N 33°44' W 118°09'0 0.0
2018-Jun-03 19:29N 33°44' W 118°09'0 0.1
2018-Jun-03 18:59N 33°44' W 118°09'0 0.0
2018-Jun-03 18:29N 33°44' W 118°09'0 0.0
2018-Jun-03 17:59N 33°44' W 118°09'0 0.0
2018-Jun-03 17:29N 33°44' W 118°09'0 0.0
2018-Jun-03 16:59N 33°44' W 118°09'0 0.0
2018-Jun-03 16:29N 33°44' W 118°09'0 0.0
2018-Jun-03 15:59N 33°44' W 118°09'0 0.0
2018-Jun-03 15:29N 33°44' W 118°09'0 0.0
2018-Jun-03 14:59N 33°44' W 118°09'0 0.1
2018-Jun-03 14:29N 33°44' W 118°09'0 0.1
2018-Jun-03 13:59N 33°44' W 118°09'0 0.0
2018-Jun-03 13:29N 33°44' W 118°09'0 0.0
2018-Jun-03 12:59N 33°44' W 118°09'0 0.0
2018-Jun-03 12:29N 33°44' W 118°09'0 0.0
2018-Jun-03 11:59N 33°44' W 118°09'0 0.0
2018-Jun-03 11:26N 33°44' W 118°09'0 0.1
2018-Jun-03 10:59N 33°44' W 118°09'0 0.0
2018-Jun-03 10:29N 33°44' W 118°09'0 0.0
2018-Jun-03 09:59N 33°44' W 118°09'0 0.0
2018-Jun-03 09:29N 33°44' W 118°09'0 0.0
2018-Jun-03 08:53N 33°44' W 118°09'0 0.0
2018-Jun-03 08:29N 33°44' W 118°09'0 0.0
2018-Jun-03 07:59N 33°44' W 118°09'0 0.0
2018-Jun-03 07:29N 33°44' W 118°09'0 0.0
2018-Jun-03 06:59N 33°44' W 118°09'0 0.0
2018-Jun-03 06:29N 33°44' W 118°09'0 0.0
2018-Jun-03 05:59N 33°44' W 118°09'0 0.0
2018-Jun-03 05:29N 33°44' W 118°09'0 0.0
2018-Jun-03 04:59N 33°44' W 118°09'0 0.0
2018-Jun-03 04:29N 33°44' W 118°09'0 0.0
2018-Jun-03 03:59N 33°44' W 118°09'0 0.0
2018-Jun-03 03:29N 33°44' W 118°09'0 0.0
2018-Jun-03 02:59N 33°44' W 118°09'0 0.0
2018-Jun-03 02:29N 33°44' W 118°09'0 0.0
2018-Jun-03 01:59N 33°44' W 118°09'0 0.0
2018-Jun-03 01:29N 33°44' W 118°09'0 0.0
2018-Jun-03 00:59N 33°44' W 118°09'0 0.0
2018-Jun-03 00:29N 33°44' W 118°09'0 0.0
2018-Jun-02 23:59N 33°44' W 118°09'0 0.0
2018-Jun-02 23:29N 33°44' W 118°09'0 0.0
2018-Jun-02 22:59N 33°44' W 118°09'0 0.0
2018-Jun-02 22:29N 33°44' W 118°09'0 0.0
2018-Jun-02 21:59N 33°44' W 118°09'0 0.0
2018-Jun-02 21:29N 33°44' W 118°09'0 0.0
2018-Jun-02 20:59N 33°44' W 118°09'0 0.1
2018-Jun-02 20:29N 33°44' W 118°09'0 0.1
2018-Jun-02 19:59N 33°44' W 118°09'0 0.0
2018-Jun-02 19:29N 33°44' W 118°09'0 0.0
2018-Jun-02 18:59N 33°44' W 118°09'0 0.1
2018-Jun-02 18:29N 33°44' W 118°09'0 0.1
2018-Jun-02 17:59N 33°44' W 118°09'0 0.0
2018-Jun-02 17:29N 33°44' W 118°09'0 0.0
2018-Jun-02 16:59N 33°44' W 118°09'0 0.0
2018-Jun-02 16:29N 33°44' W 118°09'0 0.1
2018-Jun-02 15:59N 33°44' W 118°09'0 0.1
2018-Jun-02 15:29N 33°44' W 118°09'0 0.1
2018-Jun-02 14:59N 33°44' W 118°09'0 0.1
2018-Jun-02 14:29N 33°44' W 118°09'0 0.0
2018-Jun-02 13:59N 33°44' W 118°09'0 0.0
2018-Jun-02 13:29N 33°44' W 118°09'0 0.1
2018-Jun-02 12:59N 33°44' W 118°09'0 0.0
2018-Jun-02 12:29N 33°44' W 118°09'0 0.1
2018-Jun-02 11:59N 33°44' W 118°09'0 0.1
2018-Jun-02 11:29N 33°44' W 118°09'0 0.0
2018-Jun-02 10:59N 33°44' W 118°09'0 0.0
2018-Jun-02 10:29N 33°44' W 118°09'0 0.0
2018-Jun-02 09:59N 33°44' W 118°09'0 0.0
2018-Jun-02 09:29N 33°44' W 118°09'0 0.0
2018-Jun-02 08:59N 33°44' W 118°09'0 0.0
2018-Jun-02 08:29N 33°44' W 118°09'0 0.0
2018-Jun-02 07:59N 33°44' W 118°09'0 0.0
2018-Jun-02 07:29N 33°44' W 118°09'0 0.0
2018-Jun-02 06:56N 33°44' W 118°09'0 0.0
2018-Jun-02 06:29N 33°44' W 118°09'0 0.0
2018-Jun-02 05:59N 33°44' W 118°09'0 0.0
2018-Jun-02 05:29N 33°44' W 118°09'0 0.0
2018-Jun-02 04:59N 33°44' W 118°09'0 0.0
2018-Jun-02 04:29N 33°44' W 118°09'0 0.0
2018-Jun-02 03:59N 33°44' W 118°09'0 0.0
2018-Jun-02 03:29N 33°44' W 118°09'0 0.0
2018-Jun-02 02:59N 33°44' W 118°09'0 0.0
2018-Jun-02 02:29N 33°44' W 118°09'0 0.0
2018-Jun-02 01:59N 33°44' W 118°09'0 0.0
2018-Jun-02 01:29N 33°44' W 118°09'0 0.0
2018-Jun-02 00:59N 33°44' W 118°09'0 0.0
2018-Jun-02 00:29N 33°44' W 118°09'0 0.0
2018-Jun-01 23:56N 33°44' W 118°09'0 0.0
2018-Jun-01 23:29N 33°44' W 118°09'0 0.0
2018-Jun-01 22:59N 33°44' W 118°09'0 0.0
2018-Jun-01 22:29N 33°44' W 118°09'0 0.0
2018-Jun-01 21:59N 33°44' W 118°09'0 0.0
2018-Jun-01 21:29N 33°44' W 118°09'0 0.0
2018-Jun-01 20:59N 33°44' W 118°09'0 0.0
2018-Jun-01 20:29N 33°44' W 118°09'0 0.1
2018-Jun-01 19:59N 33°44' W 118°09'0 0.0
2018-Jun-01 19:29N 33°44' W 118°09'0 0.0
2018-Jun-01 18:59N 33°44' W 118°09'0 0.1
2018-Jun-01 18:29N 33°44' W 118°09'0 0.0
2018-Jun-01 17:59N 33°44' W 118°09'0 0.0
2018-Jun-01 17:29N 33°44' W 118°09'0 0.0
2018-Jun-01 16:59N 33°44' W 118°09'0 0.1
2018-Jun-01 16:29N 33°44' W 118°09'0 0.0
2018-Jun-01 15:59N 33°44' W 118°09'0 0.1
2018-Jun-01 15:29N 33°44' W 118°09'0 0.1
2018-Jun-01 14:59N 33°44' W 118°09'0 0.1
2018-Jun-01 14:29N 33°44' W 118°09'0 0.0
2018-Jun-01 13:59N 33°44' W 118°09'0 0.0
2018-Jun-01 13:29N 33°44' W 118°09'0 0.1
2018-Jun-01 12:59N 33°44' W 118°09'0 0.1
2018-Jun-01 12:29N 33°44' W 118°09'0 0.0
2018-Jun-01 11:59N 33°44' W 118°09'0 0.1
2018-Jun-01 11:29N 33°44' W 118°09'0 0.0
2018-Jun-01 10:59N 33°44' W 118°09'0 0.0
2018-Jun-01 10:29N 33°44' W 118°09'0 0.0
2018-Jun-01 09:59N 33°44' W 118°09'0 0.0
2018-Jun-01 09:29N 33°44' W 118°09'0 0.0
2018-Jun-01 08:59N 33°44' W 118°09'0 0.0
2018-Jun-01 08:29N 33°44' W 118°09'0 0.0
2018-Jun-01 07:59N 33°44' W 118°09'0 0.0
2018-Jun-01 07:29N 33°44' W 118°09'0 0.0
2018-Jun-01 06:59N 33°44' W 118°09'0 0.0
2018-Jun-01 06:29N 33°44' W 118°09'0 0.0
2018-Jun-01 05:59N 33°44' W 118°09'0 0.0
2018-Jun-01 05:29N 33°44' W 118°09'0 0.1
2018-Jun-01 04:59N 33°44' W 118°09'0 0.0
2018-Jun-01 04:29N 33°44' W 118°09'0 0.1
2018-Jun-01 03:59N 33°44' W 118°09'0 0.0
2018-Jun-01 03:29N 33°44' W 118°09'0 0.0
2018-Jun-01 02:59N 33°44' W 118°09'0 0.0
2018-Jun-01 02:29N 33°44' W 118°09'0 0.0
2018-Jun-01 01:59N 33°44' W 118°09'0 0.0
2018-Jun-01 01:29N 33°44' W 118°09'0 0.0
2018-Jun-01 00:59N 33°44' W 118°09'0 0.0
2018-Jun-01 00:29N 33°44' W 118°09'0 0.0
2018-May-31 23:59N 33°44' W 118°09'0 0.0
2018-May-31 23:29N 33°44' W 118°09'0 0.0
2018-May-31 22:59N 33°44' W 118°09'0 0.0
2018-May-31 22:29N 33°44' W 118°09'0 0.0
2018-May-31 21:59N 33°44' W 118°09'0 0.0
2018-May-31 21:29N 33°44' W 118°09'0 0.0
2018-May-31 20:59N 33°44' W 118°09'0 0.0
2018-May-31 20:29N 33°44' W 118°09'0 0.0
2018-May-31 19:59N 33°44' W 118°09'0 0.0
2018-May-31 19:29N 33°44' W 118°09'0 0.0
2018-May-31 18:59N 33°44' W 118°09'0 0.1
2018-May-31 18:29N 33°44' W 118°09'0 0.1
2018-May-31 17:59N 33°44' W 118°09'0 0.1
2018-May-31 17:29N 33°44' W 118°09'0 0.0
2018-May-31 16:59N 33°44' W 118°09'0 0.1
2018-May-31 16:29N 33°44' W 118°09'0 0.1
2018-May-31 15:59N 33°44' W 118°09'0 0.0
2018-May-31 15:29N 33°44' W 118°09'0 0.0
2018-May-31 14:59N 33°44' W 118°09'0 0.0
2018-May-31 14:26N 33°44' W 118°09'0 0.0
2018-May-31 13:59N 33°44' W 118°09'0 0.0
2018-May-31 13:29N 33°44' W 118°09'0 0.0
2018-May-31 12:59N 33°44' W 118°09'0 0.0
2018-May-31 12:29N 33°44' W 118°09'0 0.0
2018-May-31 11:59N 33°44' W 118°09'0 0.0
2018-May-31 11:29N 33°44' W 118°09'0 0.0
2018-May-31 10:59N 33°44' W 118°09'0 0.0
2018-May-31 10:29N 33°44' W 118°09'0 0.1
2018-May-31 09:59N 33°44' W 118°09'0 0.1
2018-May-31 09:29N 33°44' W 118°09'0 0.1
2018-May-31 08:59N 33°44' W 118°10'0 0.0
2018-May-31 08:29N 33°44' W 118°10'0 0.0
2018-May-31 07:59N 33°44' W 118°10'0 0.0
2018-May-31 07:26N 33°44' W 118°10'0 0.0
2018-May-31 06:59N 33°44' W 118°10'0 0.0
2018-May-31 06:29N 33°44' W 118°10'0 0.3
2018-May-31 05:53N 33°44' W 118°09'0 0.1
2018-May-31 05:20N 33°44' W 118°09'0 0.0
2018-May-31 04:56N 33°44' W 118°09'0 0.0
2018-May-31 04:29N 33°44' W 118°09'0 0.0
2018-May-31 03:53N 33°44' W 118°09'0 0.0
2018-May-31 03:26N 33°44' W 118°09'0 0.0
2018-May-31 02:59N 33°44' W 118°09'0 0.0
2018-May-31 02:29N 33°44' W 118°09'0 0.0
2018-May-31 01:59N 33°44' W 118°09'0 0.0
2018-May-31 01:29N 33°44' W 118°09'0 0.0
2018-May-31 00:59N 33°44' W 118°09'0 0.0
2018-May-31 00:26N 33°44' W 118°09'0 0.1
2018-May-30 23:59N 33°44' W 118°09'0 0.0
2018-May-30 23:29N 33°44' W 118°09'0 0.1
2018-May-30 22:59N 33°44' W 118°09'0 0.1
2018-May-30 22:29N 33°44' W 118°09'0 0.1
2018-May-30 21:59N 33°44' W 118°09'0 0.1
2018-May-30 21:29N 33°44' W 118°09'0 0.0
2018-May-30 20:59N 33°44' W 118°09'0 0.1
2018-May-30 20:29N 33°44' W 118°09'0 0.1
2018-May-30 19:59N 33°44' W 118°09'0 0.1
2018-May-30 19:29N 33°44' W 118°10'0 0.0
2018-May-30 18:59N 33°44' W 118°10'0 0.0
2018-May-30 18:29N 33°44' W 118°10'0 0.0
2018-May-30 17:59N 33°44' W 118°10'0 0.0
2018-May-30 17:26N 33°44' W 118°10'0 0.0
2018-May-30 16:59N 33°44' W 118°10'0 0.0
2018-May-30 16:29N 33°44' W 118°10'0 0.0
2018-May-30 15:56N 33°44' W 118°10'0 0.0
2018-May-30 15:29N 33°44' W 118°10'0 0.0
2018-May-30 14:59N 33°44' W 118°10'0 0.0
2018-May-30 14:29N 33°44' W 118°10'0 0.1
2018-May-30 13:56N 33°44' W 118°09'0 0.0
2018-May-30 13:29N 33°44' W 118°09'0 0.1
2018-May-30 12:59N 33°44' W 118°09'0 0.0
2018-May-30 12:23N 33°44' W 118°09'0 0.0
2018-May-30 11:59N 33°44' W 118°09'0 0.0
2018-May-30 11:29N 33°44' W 118°09'0 0.0
2018-May-30 10:59N 33°44' W 118°09'0 0.1
2018-May-30 10:11N 33°44' W 118°09'0 0.0
2018-May-30 09:59N 33°44' W 118°09'0 0.1
2018-May-30 09:29N 33°44' W 118°09'0 0.0
2018-May-30 08:59N 33°44' W 118°09'0 0.1
2018-May-30 08:29N 33°44' W 118°09'0 0.0
2018-May-30 07:59N 33°44' W 118°09'0 0.0
2018-May-30 07:26N 33°44' W 118°09'0 0.1
2018-May-30 06:53N 33°44' W 118°10'0 0.0
2018-May-30 06:20N 33°44' W 118°10'0 0.0
2018-May-30 05:56N 33°44' W 118°10'0 0.0
2018-May-30 05:26N 33°44' W 118°10'0 0.0
2018-May-30 04:59N 33°44' W 118°10'0 0.1
2018-May-30 04:17N 33°44' W 118°10'0 0.1
2018-May-30 03:50N 33°44' W 118°10'0 0.4
2018-May-30 03:30N 33°44' W 118°10'4 7.5
2018-May-30 03:00N 33°43' W 118°14'3 5.1
2018-May-30 02:30N 33°45' W 118°17'1 1.1
2018-May-30 01:59N 33°45' W 118°16'0 0.0
2018-May-30 01:29N 33°45' W 118°16'0 0.0
2018-May-30 00:59N 33°45' W 118°16'0 0.0
2018-May-30 00:26N 33°45' W 118°16'0 0.0
2018-May-29 23:59N 33°45' W 118°16'0 0.0
2018-May-29 23:29N 33°45' W 118°16'0 0.0
2018-May-29 22:59N 33°45' W 118°16'0 0.0
2018-May-29 22:29N 33°45' W 118°16'0 0.0
2018-May-29 21:59N 33°45' W 118°16'0 0.0
2018-May-29 21:29N 33°45' W 118°16'0 0.0
2018-May-29 20:59N 33°45' W 118°16'0 0.0
2018-May-29 20:29N 33°45' W 118°16'0 0.0
2018-May-29 19:59N 33°45' W 118°16'0 0.0
2018-May-29 19:29N 33°45' W 118°16'0 0.0
2018-May-29 18:59N 33°45' W 118°16'0 0.0
2018-May-29 18:29N 33°45' W 118°16'0 0.0
2018-May-29 17:59N 33°45' W 118°16'0 0.0
2018-May-29 17:29N 33°45' W 118°16'0 0.0
2018-May-29 16:59N 33°45' W 118°16'0 0.0
2018-May-29 16:29N 33°45' W 118°16'0 0.0
2018-May-29 15:59N 33°45' W 118°16'0 0.0
2018-May-29 15:29N 33°45' W 118°16'0 0.0
2018-May-29 14:59N 33°45' W 118°16'0 0.0
2018-May-29 14:29N 33°45' W 118°16'0 0.0
2018-May-29 13:59N 33°45' W 118°16'0 0.0
2018-May-29 13:29N 33°45' W 118°16'0 0.0
2018-May-29 12:59N 33°45' W 118°16'0 0.0
2018-May-29 12:29N 33°45' W 118°16'0 0.0
2018-May-29 11:59N 33°45' W 118°16'0 0.0
2018-May-29 11:29N 33°45' W 118°16'0 0.0
2018-May-29 10:59N 33°45' W 118°16'0 0.0
2018-May-29 10:29N 33°45' W 118°16'0 0.0
2018-May-29 09:59N 33°45' W 118°16'0 0.0
2018-May-29 09:29N 33°45' W 118°16'0 0.0
2018-May-29 08:59N 33°45' W 118°16'0 0.0
2018-May-29 08:29N 33°45' W 118°16'0 0.0
2018-May-29 07:59N 33°45' W 118°16'0 0.0
2018-May-29 07:26N 33°45' W 118°16'0 0.0
2018-May-29 06:59N 33°45' W 118°16'0 0.0
2018-May-29 06:29N 33°45' W 118°16'0 0.0
2018-May-29 05:59N 33°45' W 118°16'0 0.0
2018-May-29 05:29N 33°45' W 118°16'0 0.0
2018-May-29 04:59N 33°45' W 118°16'0 0.0
2018-May-29 04:29N 33°45' W 118°16'0 0.0
2018-May-29 03:59N 33°45' W 118°16'0 0.0
2018-May-29 03:29N 33°45' W 118°16'0 0.0
2018-May-29 02:59N 33°45' W 118°16'0 0.0
2018-May-29 02:29N 33°45' W 118°16'0 0.0
2018-May-29 01:59N 33°45' W 118°16'0 0.0
2018-May-29 01:29N 33°45' W 118°16'0 0.0
2018-May-29 00:59N 33°45' W 118°16'0 0.0
2018-May-29 00:29N 33°45' W 118°16'0 0.0
2018-May-28 23:59N 33°45' W 118°16'0 0.0
2018-May-28 23:29N 33°45' W 118°16'0 0.0
2018-May-28 22:59N 33°45' W 118°16'0 0.0
2018-May-28 22:29N 33°45' W 118°16'0 0.0
2018-May-28 21:59N 33°45' W 118°16'0 0.0
2018-May-28 21:29N 33°45' W 118°16'0 0.1
2018-May-28 20:59N 33°45' W 118°17'0 0.1
2018-May-28 20:28N 33°45' W 118°16'0 0.0
2018-May-28 19:59N 33°45' W 118°16'0 0.0
2018-May-28 19:29N 33°45' W 118°16'0 0.0
2018-May-28 18:59N 33°45' W 118°16'0 0.0
2018-May-28 18:28N 33°45' W 118°16'0 0.0
2018-May-28 17:59N 33°45' W 118°16'0 0.0
2018-May-28 17:29N 33°45' W 118°16'0 0.0
2018-May-28 16:59N 33°45' W 118°16'0 0.0
2018-May-28 16:29N 33°45' W 118°16'0 0.0
2018-May-28 15:59N 33°45' W 118°16'0 0.0
2018-May-28 15:29N 33°45' W 118°16'0 0.0
2018-May-28 14:59N 33°45' W 118°16'0 0.0
2018-May-28 14:29N 33°45' W 118°16'0 0.0
2018-May-28 13:58N 33°45' W 118°16'0 0.0
2018-May-28 13:28N 33°45' W 118°16'0 0.0
2018-May-28 12:56N 33°45' W 118°16'0 0.0
2018-May-28 12:29N 33°45' W 118°16'0 0.0
2018-May-28 11:58N 33°45' W 118°16'0 0.0
2018-May-28 11:28N 33°45' W 118°16'0 0.0
2018-May-28 10:59N 33°45' W 118°16'0 0.0
2018-May-28 10:29N 33°45' W 118°16'0 0.0
2018-May-28 09:59N 33°45' W 118°16'0 0.0
2018-May-28 09:29N 33°45' W 118°16'0 0.0
2018-May-28 08:58N 33°45' W 118°16'0 0.0
2018-May-28 08:29N 33°45' W 118°16'0 0.0
2018-May-28 07:56N 33°45' W 118°16'0 0.0
2018-May-28 07:29N 33°45' W 118°16'0 0.0
2018-May-28 06:58N 33°45' W 118°16'0 0.0
2018-May-28 06:28N 33°45' W 118°16'0 0.0
2018-May-28 05:58N 33°45' W 118°16'0 0.0
2018-May-28 05:28N 33°45' W 118°16'0 0.0
2018-May-28 04:58N 33°45' W 118°16'0 0.0
2018-May-28 04:28N 33°45' W 118°16'0 0.0
2018-May-28 03:59N 33°45' W 118°16'0 0.0
2018-May-28 03:28N 33°45' W 118°16'0 0.0
2018-May-28 02:58N 33°45' W 118°16'0 0.0
2018-May-28 02:28N 33°45' W 118°16'0 0.0
2018-May-28 01:58N 33°45' W 118°16'0 0.0
2018-May-28 01:28N 33°45' W 118°16'0 0.0
2018-May-28 00:58N 33°45' W 118°16'0 0.0
2018-May-28 00:28N 33°45' W 118°16'0 0.0
2018-May-27 23:59N 33°45' W 118°16'0 0.1
2018-May-27 23:28N 33°45' W 118°17'0 0.1
2018-May-27 22:58N 33°45' W 118°16'0 0.0
2018-May-27 22:28N 33°45' W 118°16'0 0.0
2018-May-27 21:58N 33°45' W 118°16'0 0.0
2018-May-27 21:28N 33°45' W 118°16'0 0.0
2018-May-27 20:58N 33°45' W 118°16'0 0.0
2018-May-27 20:28N 33°45' W 118°16'0 0.0
2018-May-27 19:58N 33°45' W 118°16'0 0.0
2018-May-27 19:28N 33°45' W 118°16'0 0.0
2018-May-27 18:58N 33°45' W 118°16'0 0.0
2018-May-27 18:28N 33°45' W 118°16'0 0.0
2018-May-27 17:58N 33°45' W 118°16'0 0.0
2018-May-27 17:28N 33°45' W 118°16'0 0.0
2018-May-27 16:58N 33°45' W 118°16'0 0.0
2018-May-27 16:28N 33°45' W 118°16'0 0.0
2018-May-27 15:58N 33°45' W 118°16'0 0.0
2018-May-27 15:28N 33°45' W 118°16'0 0.0
2018-May-27 14:58N 33°45' W 118°16'0 0.0
2018-May-27 14:28N 33°45' W 118°16'0 0.0
2018-May-27 13:55N 33°45' W 118°16'0 0.0
2018-May-27 13:28N 33°45' W 118°16'0 0.0
2018-May-27 12:58N 33°45' W 118°16'0 0.0
2018-May-27 12:28N 33°45' W 118°16'0 0.0
2018-May-27 12:01N 33°45' W 118°16'0 0.4
2018-May-27 11:31N 33°45' W 118°16'2 4.8
2018-May-27 11:01N 33°43' W 118°15'3 4.9
2018-May-27 10:30N 33°43' W 118°12'1 1.0
2018-May-27 09:58N 33°43' W 118°12'0 0.0
2018-May-27 09:25N 33°43' W 118°12'0 0.0
2018-May-27 08:46N 33°43' W 118°12'0 0.1
2018-May-27 08:25N 33°43' W 118°12'0 0.1
2018-May-27 07:58N 33°43' W 118°12'0 0.0
2018-May-27 07:28N 33°43' W 118°12'0 0.0
2018-May-27 06:58N 33°43' W 118°12'0 0.0
2018-May-27 06:28N 33°43' W 118°12'0 0.0
2018-May-27 05:55N 33°43' W 118°12'0 0.0
2018-May-27 05:25N 33°43' W 118°12'0 0.1
2018-May-27 04:40N 33°43' W 118°12'0 0.0
2018-May-27 04:22N 33°43' W 118°12'0 0.0
2018-May-27 03:52N 33°43' W 118°12'0 0.1
2018-May-27 03:28N 33°43' W 118°12'0 0.0
2018-May-27 02:58N 33°43' W 118°12'0 0.0
2018-May-27 02:28N 33°43' W 118°12'0 0.1
2018-May-27 01:58N 33°43' W 118°12'0 0.0
2018-May-27 01:28N 33°43' W 118°12'0 0.0
2018-May-27 00:58N 33°43' W 118°12'0 0.0
2018-May-27 00:28N 33°43' W 118°12'0 0.0
2018-May-26 23:58N 33°43' W 118°12'0 0.0
2018-May-26 23:28N 33°43' W 118°12'0 0.0
2018-May-26 22:58N 33°43' W 118°12'0 0.0
2018-May-26 22:28N 33°43' W 118°12'0 0.0
2018-May-26 21:55N 33°43' W 118°12'0 0.1
2018-May-26 21:28N 33°43' W 118°12'0 0.2
2018-May-26 20:58N 33°43' W 118°12'0 1.0
2018-May-26 20:30N 33°42' W 118°12'4 7.3
2018-May-26 20:01N 33°39' W 118°13'5 9.4
2018-May-26 19:31N 33°36' W 118°18'611.2
2018-May-26 18:59N 33°36' W 118°25'510.9
2018-May-26 18:30N 33°36' W 118°32'  
Track history (hours):
 
Tides and Currents Weather Stations Pressure Air Temp Water Temp Dewpoint Dewpoint Depression Visibility Wind Speed Wind Dir Waves Ship Positions

Kristina

Last reported at 2018-Jun-05 17:27 UTC. Time now 2018-Jun-18 15:12 UTC.
Position N 38°32' W 124°04'.
Warning: this ship's position is 12 days out of date.

Length 270 m; draft 10.4 m.

Type: Ship (hazmat cat A). MMSI: 538004913.

Date/timePositionNaut miles runAvg speedWind from/ knotsBaromVisibWave heightAir tempDewpointWater temp
2018-Jun-05 17:27N 38°32' W 124°04'612.7
2018-Jun-05 17:00N 38°29' W 123°58'612.7
2018-Jun-05 16:30N 38°26' W 123°51'613.0
2018-Jun-05 16:00N 38°22' W 123°44'612.9
2018-Jun-05 15:30N 38°19' W 123°38'612.8
2018-Jun-05 15:00N 38°15' W 123°31'612.6
2018-Jun-05 14:30N 38°11' W 123°24'611.8
2018-Jun-05 14:00N 38°08' W 123°18'612.3
2018-Jun-05 13:30N 38°03' W 123°13'612.5
2018-Jun-05 13:00N 37°58' W 123°08'612.8
2018-Jun-05 12:30N 37°55' W 123°01'612.8
2018-Jun-05 12:01N 37°52' W 122°54'612.9
2018-Jun-05 11:30N 37°49' W 122°47'611.8
2018-Jun-05 11:00N 37°46' W 122°41'713.3
2018-Jun-05 10:30N 37°48' W 122°33'713.7
2018-Jun-05 10:00N 37°50' W 122°25'510.1
2018-Jun-05 09:30N 37°48' W 122°19'0 0.7
2018-Jun-05 09:00N 37°48' W 122°19'0 0.0
2018-Jun-05 08:30N 37°48' W 122°19'0 0.0
2018-Jun-05 08:00N 37°48' W 122°19'0 0.0
2018-Jun-05 07:30N 37°48' W 122°19'0 0.0
2018-Jun-05 07:00N 37°48' W 122°19'0 0.0
2018-Jun-05 06:30N 37°48' W 122°19'0 0.0
2018-Jun-05 06:00N 37°48' W 122°19'0 0.0
2018-Jun-05 05:30N 37°48' W 122°19'0 0.0
2018-Jun-05 05:00N 37°48' W 122°19'0 0.0
2018-Jun-05 04:30N 37°48' W 122°19'0 0.0
2018-Jun-05 04:00N 37°48' W 122°19'0 0.0
2018-Jun-05 03:30N 37°48' W 122°19'0 0.0
2018-Jun-05 03:00N 37°48' W 122°19'0 0.0
2018-Jun-05 02:30N 37°48' W 122°19'0 0.0
2018-Jun-05 02:00N 37°48' W 122°19'0 0.0
2018-Jun-05 01:30N 37°48' W 122°19'0 0.0
2018-Jun-05 01:00N 37°48' W 122°19'0 0.0
2018-Jun-05 00:30N 37°48' W 122°19'0 0.0
2018-Jun-05 00:00N 37°48' W 122°19'0 0.0
2018-Jun-04 23:30N 37°48' W 122°19'1 1.9
2018-Jun-04 23:00N 37°48' W 122°17'2 3.6
2018-Jun-04 22:30N 37°48' W 122°20'4 8.4
2018-Jun-04 22:00N 37°49' W 122°25'713.4
2018-Jun-04 21:30N 37°47' W 122°33'713.7
2018-Jun-04 21:00N 37°44' W 122°41'4 8.9
2018-Jun-04 20:30N 37°40' W 122°40'714.5
2018-Jun-04 20:01N 37°33' W 122°40'815.1
2018-Jun-04 19:31N 37°25' W 122°40'815.2
2018-Jun-04 19:00N 37°18' W 122°40'917.1
2018-Jun-04 18:31N 37°09' W 122°39'917.5
2018-Jun-04 18:01N 37°01' W 122°35'917.9
2018-Jun-04 17:31N 36°53' W 122°30'917.7
2018-Jun-04 17:01N 36°45' W 122°26'1317.7
2018-Jun-04 16:16N 36°33' W 122°19'917.6
2018-Jun-04 15:46N 36°25' W 122°15'1017.8
2018-Jun-04 15:14N 36°16' W 122°10'817.9
2018-Jun-04 14:46N 36°08' W 122°06'3918.0
2018-Jun-04 12:35N 35°34' W 121°41'218.2
2018-Jun-04 12:30N 35°33' W 121°40'918.2
2018-Jun-04 12:01N 35°25' W 121°35'918.1
2018-Jun-04 11:31N 35°18' W 121°29'918.1
2018-Jun-04 11:01N 35°10' W 121°23'917.7
2018-Jun-04 10:31N 35°02' W 121°18'918.0
2018-Jun-04 10:01N 34°54' W 121°12'918.1
2018-Jun-04 09:31N 34°47' W 121°07'918.4
2018-Jun-04 09:01N 34°39' W 121°01'918.4
2018-Jun-04 08:31N 34°31' W 120°56'917.5
2018-Jun-04 08:00N 34°25' W 120°47'918.1
2018-Jun-04 07:29N 34°23' W 120°36'917.8
2018-Jun-04 07:00N 34°21' W 120°26'1218.1
2018-Jun-04 06:22N 34°17' W 120°13'719.0
2018-Jun-04 06:00N 34°16' W 120°05'918.4
2018-Jun-04 05:31N 34°14' W 119°54'918.0
2018-Jun-04 05:00N 34°11' W 119°43'918.0
2018-Jun-04 04:31N 34°08' W 119°33'918.2
2018-Jun-04 04:01N 34°06' W 119°23'917.9
2018-Jun-04 03:31N 34°03' W 119°12'917.3
2018-Jun-04 03:00N 33°59' W 119°03'611.5
2018-Jun-04 02:30N 33°56' W 118°57'611.6
2018-Jun-04 02:00N 33°53' W 118°51'611.7
2018-Jun-04 01:30N 33°50' W 118°45'611.5
2018-Jun-04 00:58N 33°47' W 118°39'612.0
2018-Jun-04 00:27N 33°44' W 118°32'511.5
2018-Jun-04 00:00N 33°41' W 118°27'511.2
2018-Jun-03 23:30N 33°38' W 118°21'510.8
2018-Jun-03 23:00N 33°39' W 118°15'5 9.4
2018-Jun-03 22:30N 33°43' W 118°11'2 4.0
2018-Jun-03 21:59N 33°44' W 118°09'0 0.0
2018-Jun-03 21:29N 33°44' W 118°09'0 0.0
2018-Jun-03 20:59N 33°44' W 118°09'0 0.0
2018-Jun-03 20:29N 33°44' W 118°09'0 0.0
2018-Jun-03 19:59N 33°44' W 118°09'0 0.0
2018-Jun-03 19:29N 33°44' W 118°09'0 0.1
2018-Jun-03 18:59N 33°44' W 118°09'0 0.0
2018-Jun-03 18:29N 33°44' W 118°09'0 0.0
2018-Jun-03 17:59N 33°44' W 118°09'0 0.0
2018-Jun-03 17:29N 33°44' W 118°09'0 0.0
2018-Jun-03 16:59N 33°44' W 118°09'0 0.0
2018-Jun-03 16:29N 33°44' W 118°09'0 0.0
2018-Jun-03 15:59N 33°44' W 118°09'0 0.0
2018-Jun-03 15:29N 33°44' W 118°09'0 0.0
2018-Jun-03 14:59N 33°44' W 118°09'0 0.1
2018-Jun-03 14:29N 33°44' W 118°09'0 0.1
2018-Jun-03 13:59N 33°44' W 118°09'0 0.0
2018-Jun-03 13:29N 33°44' W 118°09'0 0.0
2018-Jun-03 12:59N 33°44' W 118°09'0 0.0
2018-Jun-03 12:29N 33°44' W 118°09'0 0.0
2018-Jun-03 11:59N 33°44' W 118°09'0 0.0
2018-Jun-03 11:26N 33°44' W 118°09'0 0.1
2018-Jun-03 10:59N 33°44' W 118°09'0 0.0
2018-Jun-03 10:29N 33°44' W 118°09'0 0.0
2018-Jun-03 09:59N 33°44' W 118°09'0 0.0
2018-Jun-03 09:29N 33°44' W 118°09'0 0.0
2018-Jun-03 08:53N 33°44' W 118°09'0 0.0
2018-Jun-03 08:29N 33°44' W 118°09'0 0.0
2018-Jun-03 07:59N 33°44' W 118°09'0 0.0
2018-Jun-03 07:29N 33°44' W 118°09'0 0.0
2018-Jun-03 06:59N 33°44' W 118°09'0 0.0
2018-Jun-03 06:29N 33°44' W 118°09'0 0.0
2018-Jun-03 05:59N 33°44' W 118°09'0 0.0
2018-Jun-03 05:29N 33°44' W 118°09'0 0.0
2018-Jun-03 04:59N 33°44' W 118°09'0 0.0
2018-Jun-03 04:29N 33°44' W 118°09'0 0.0
2018-Jun-03 03:59N 33°44' W 118°09'0 0.0
2018-Jun-03 03:29N 33°44' W 118°09'0 0.0
2018-Jun-03 02:59N 33°44' W 118°09'0 0.0
2018-Jun-03 02:29N 33°44' W 118°09'0 0.0
2018-Jun-03 01:59N 33°44' W 118°09'0 0.0
2018-Jun-03 01:29N 33°44' W 118°09'0 0.0
2018-Jun-03 00:59N 33°44' W 118°09'0 0.0
2018-Jun-03 00:29N 33°44' W 118°09'0 0.0
2018-Jun-02 23:59N 33°44' W 118°09'0 0.0
2018-Jun-02 23:29N 33°44' W 118°09'0 0.0
2018-Jun-02 22:59N 33°44' W 118°09'0 0.0
2018-Jun-02 22:29N 33°44' W 118°09'0 0.0
2018-Jun-02 21:59N 33°44' W 118°09'0 0.0
2018-Jun-02 21:29N 33°44' W 118°09'0 0.0
2018-Jun-02 20:59N 33°44' W 118°09'0 0.1
2018-Jun-02 20:29N 33°44' W 118°09'0 0.1
2018-Jun-02 19:59N 33°44' W 118°09'0 0.0
2018-Jun-02 19:29N 33°44' W 118°09'0 0.0
2018-Jun-02 18:59N 33°44' W 118°09'0 0.1
2018-Jun-02 18:29N 33°44' W 118°09'0 0.1
2018-Jun-02 17:59N 33°44' W 118°09'0 0.0
2018-Jun-02 17:29N 33°44' W 118°09'0 0.0
2018-Jun-02 16:59N 33°44' W 118°09'0 0.0
2018-Jun-02 16:29N 33°44' W 118°09'0 0.1
2018-Jun-02 15:59N 33°44' W 118°09'0 0.1
2018-Jun-02 15:29N 33°44' W 118°09'0 0.1
2018-Jun-02 14:59N 33°44' W 118°09'0 0.1
2018-Jun-02 14:29N 33°44' W 118°09'0 0.0
2018-Jun-02 13:59N 33°44' W 118°09'0 0.0
2018-Jun-02 13:29N 33°44' W 118°09'0 0.1
2018-Jun-02 12:59N 33°44' W 118°09'0 0.0
2018-Jun-02 12:29N 33°44' W 118°09'0 0.1
2018-Jun-02 11:59N 33°44' W 118°09'0 0.1
2018-Jun-02 11:29N 33°44' W 118°09'0 0.0
2018-Jun-02 10:59N 33°44' W 118°09'0 0.0
2018-Jun-02 10:29N 33°44' W 118°09'0 0.0
2018-Jun-02 09:59N 33°44' W 118°09'0 0.0
2018-Jun-02 09:29N 33°44' W 118°09'0 0.0
2018-Jun-02 08:59N 33°44' W 118°09'0 0.0
2018-Jun-02 08:29N 33°44' W 118°09'0 0.0
2018-Jun-02 07:59N 33°44' W 118°09'0 0.0
2018-Jun-02 07:29N 33°44' W 118°09'0 0.0
2018-Jun-02 06:56N 33°44' W 118°09'0 0.0
2018-Jun-02 06:29N 33°44' W 118°09'0 0.0
2018-Jun-02 05:59N 33°44' W 118°09'0 0.0
2018-Jun-02 05:29N 33°44' W 118°09'0 0.0
2018-Jun-02 04:59N 33°44' W 118°09'0 0.0
2018-Jun-02 04:29N 33°44' W 118°09'0 0.0
2018-Jun-02 03:59N 33°44' W 118°09'0 0.0
2018-Jun-02 03:29N 33°44' W 118°09'0 0.0
2018-Jun-02 02:59N 33°44' W 118°09'0 0.0
2018-Jun-02 02:29N 33°44' W 118°09'0 0.0
2018-Jun-02 01:59N 33°44' W 118°09'0 0.0
2018-Jun-02 01:29N 33°44' W 118°09'0 0.0
2018-Jun-02 00:59N 33°44' W 118°09'0 0.0
2018-Jun-02 00:29N 33°44' W 118°09'0 0.0
2018-Jun-01 23:56N 33°44' W 118°09'0 0.0
2018-Jun-01 23:29N 33°44' W 118°09'0 0.0
2018-Jun-01 22:59N 33°44' W 118°09'0 0.0
2018-Jun-01 22:29N 33°44' W 118°09'0 0.0
2018-Jun-01 21:59N 33°44' W 118°09'0 0.0
2018-Jun-01 21:29N 33°44' W 118°09'0 0.0
2018-Jun-01 20:59N 33°44' W 118°09'0 0.0
2018-Jun-01 20:29N 33°44' W 118°09'0 0.1
2018-Jun-01 19:59N 33°44' W 118°09'0 0.0
2018-Jun-01 19:29N 33°44' W 118°09'0 0.0
2018-Jun-01 18:59N 33°44' W 118°09'0 0.1
2018-Jun-01 18:29N 33°44' W 118°09'0 0.0
2018-Jun-01 17:59N 33°44' W 118°09'0 0.0
2018-Jun-01 17:29N 33°44' W 118°09'0 0.0
2018-Jun-01 16:59N 33°44' W 118°09'0 0.1
2018-Jun-01 16:29N 33°44' W 118°09'0 0.0
2018-Jun-01 15:59N 33°44' W 118°09'0 0.1
2018-Jun-01 15:29N 33°44' W 118°09'0 0.1
2018-Jun-01 14:59N 33°44' W 118°09'0 0.1
2018-Jun-01 14:29N 33°44' W 118°09'0 0.0
2018-Jun-01 13:59N 33°44' W 118°09'0 0.0
2018-Jun-01 13:29N 33°44' W 118°09'0 0.1
2018-Jun-01 12:59N 33°44' W 118°09'0 0.1
2018-Jun-01 12:29N 33°44' W 118°09'0 0.0
2018-Jun-01 11:59N 33°44' W 118°09'0 0.1
2018-Jun-01 11:29N 33°44' W 118°09'0 0.0
2018-Jun-01 10:59N 33°44' W 118°09'0 0.0
2018-Jun-01 10:29N 33°44' W 118°09'0 0.0
2018-Jun-01 09:59N 33°44' W 118°09'0 0.0
2018-Jun-01 09:29N 33°44' W 118°09'0 0.0
2018-Jun-01 08:59N 33°44' W 118°09'0 0.0
2018-Jun-01 08:29N 33°44' W 118°09'0 0.0
2018-Jun-01 07:59N 33°44' W 118°09'0 0.0
2018-Jun-01 07:29N 33°44' W 118°09'0 0.0
2018-Jun-01 06:59N 33°44' W 118°09'0 0.0
2018-Jun-01 06:29N 33°44' W 118°09'0 0.0
2018-Jun-01 05:59N 33°44' W 118°09'0 0.0
2018-Jun-01 05:29N 33°44' W 118°09'0 0.1
2018-Jun-01 04:59N 33°44' W 118°09'0 0.0
2018-Jun-01 04:29N 33°44' W 118°09'0 0.1
2018-Jun-01 03:59N 33°44' W 118°09'0 0.0
2018-Jun-01 03:29N 33°44' W 118°09'0 0.0
2018-Jun-01 02:59N 33°44' W 118°09'0 0.0
2018-Jun-01 02:29N 33°44' W 118°09'0 0.0
2018-Jun-01 01:59N 33°44' W 118°09'0 0.0
2018-Jun-01 01:29N 33°44' W 118°09'0 0.0
2018-Jun-01 00:59N 33°44' W 118°09'0 0.0
2018-Jun-01 00:29N 33°44' W 118°09'0 0.0
2018-May-31 23:59N 33°44' W 118°09'0 0.0
2018-May-31 23:29N 33°44' W 118°09'0 0.0
2018-May-31 22:59N 33°44' W 118°09'0 0.0
2018-May-31 22:29N 33°44' W 118°09'0 0.0
2018-May-31 21:59N 33°44' W 118°09'0 0.0
2018-May-31 21:29N 33°44' W 118°09'0 0.0
2018-May-31 20:59N 33°44' W 118°09'0 0.0
2018-May-31 20:29N 33°44' W 118°09'0 0.0
2018-May-31 19:59N 33°44' W 118°09'0 0.0
2018-May-31 19:29N 33°44' W 118°09'0 0.0
2018-May-31 18:59N 33°44' W 118°09'0 0.1
2018-May-31 18:29N 33°44' W 118°09'0 0.1
2018-May-31 17:59N 33°44' W 118°09'0 0.1
2018-May-31 17:29N 33°44' W 118°09'0 0.0
2018-May-31 16:59N 33°44' W 118°09'0 0.1
2018-May-31 16:29N 33°44' W 118°09'0 0.1
2018-May-31 15:59N 33°44' W 118°09'0 0.0
2018-May-31 15:29N 33°44' W 118°09'0 0.0
2018-May-31 14:59N 33°44' W 118°09'0 0.0
2018-May-31 14:26N 33°44' W 118°09'0 0.0
2018-May-31 13:59N 33°44' W 118°09'0 0.0
2018-May-31 13:29N 33°44' W 118°09'0 0.0
2018-May-31 12:59N 33°44' W 118°09'0 0.0
2018-May-31 12:29N 33°44' W 118°09'0 0.0
2018-May-31 11:59N 33°44' W 118°09'0 0.0
2018-May-31 11:29N 33°44' W 118°09'0 0.0
2018-May-31 10:59N 33°44' W 118°09'0 0.0
2018-May-31 10:29N 33°44' W 118°09'0 0.1
2018-May-31 09:59N 33°44' W 118°09'0 0.1
2018-May-31 09:29N 33°44' W 118°09'0 0.1
2018-May-31 08:59N 33°44' W 118°10'0 0.0
2018-May-31 08:29N 33°44' W 118°10'0 0.0
2018-May-31 07:59N 33°44' W 118°10'0 0.0
2018-May-31 07:26N 33°44' W 118°10'0 0.0
2018-May-31 06:59N 33°44' W 118°10'0 0.0
2018-May-31 06:29N 33°44' W 118°10'0 0.3
2018-May-31 05:53N 33°44' W 118°09'0 0.1
2018-May-31 05:20N 33°44' W 118°09'0 0.0
2018-May-31 04:56N 33°44' W 118°09'0 0.0
2018-May-31 04:29N 33°44' W 118°09'0 0.0
2018-May-31 03:53N 33°44' W 118°09'0 0.0
2018-May-31 03:26N 33°44' W 118°09'0 0.0
2018-May-31 02:59N 33°44' W 118°09'0 0.0
2018-May-31 02:29N 33°44' W 118°09'0 0.0
2018-May-31 01:59N 33°44' W 118°09'0 0.0
2018-May-31 01:29N 33°44' W 118°09'0 0.0
2018-May-31 00:59N 33°44' W 118°09'0 0.0
2018-May-31 00:26N 33°44' W 118°09'0 0.1
2018-May-30 23:59N 33°44' W 118°09'0 0.0
2018-May-30 23:29N 33°44' W 118°09'0 0.1
2018-May-30 22:59N 33°44' W 118°09'0 0.1
2018-May-30 22:29N 33°44' W 118°09'0 0.1
2018-May-30 21:59N 33°44' W 118°09'0 0.1
2018-May-30 21:29N 33°44' W 118°09'0 0.0
2018-May-30 20:59N 33°44' W 118°09'0 0.1
2018-May-30 20:29N 33°44' W 118°09'0 0.1
2018-May-30 19:59N 33°44' W 118°09'0 0.1
2018-May-30 19:29N 33°44' W 118°10'0 0.0
2018-May-30 18:59N 33°44' W 118°10'0 0.0
2018-May-30 18:29N 33°44' W 118°10'0 0.0
2018-May-30 17:59N 33°44' W 118°10'0 0.0
2018-May-30 17:26N 33°44' W 118°10'0 0.0
2018-May-30 16:59N 33°44' W 118°10'0 0.0
2018-May-30 16:29N 33°44' W 118°10'0 0.0
2018-May-30 15:56N 33°44' W 118°10'0 0.0
2018-May-30 15:29N 33°44' W 118°10'0 0.0
2018-May-30 14:59N 33°44' W 118°10'0 0.0
2018-May-30 14:29N 33°44' W 118°10'0 0.1
2018-May-30 13:56N 33°44' W 118°09'0 0.0
2018-May-30 13:29N 33°44' W 118°09'0 0.1
2018-May-30 12:59N 33°44' W 118°09'0 0.0
2018-May-30 12:23N 33°44' W 118°09'0 0.0
2018-May-30 11:59N 33°44' W 118°09'0 0.0
2018-May-30 11:29N 33°44' W 118°09'0 0.0
2018-May-30 10:59N 33°44' W 118°09'0 0.1
2018-May-30 10:11N 33°44' W 118°09'0 0.0
2018-May-30 09:59N 33°44' W 118°09'0 0.1
2018-May-30 09:29N 33°44' W 118°09'0 0.0
2018-May-30 08:59N 33°44' W 118°09'0 0.1
2018-May-30 08:29N 33°44' W 118°09'0 0.0
2018-May-30 07:59N 33°44' W 118°09'0 0.0
2018-May-30 07:26N 33°44' W 118°09'0 0.1
2018-May-30 06:53N 33°44' W 118°10'0 0.0
2018-May-30 06:20N 33°44' W 118°10'0 0.0
2018-May-30 05:56N 33°44' W 118°10'0 0.0
2018-May-30 05:26N 33°44' W 118°10'0 0.0
2018-May-30 04:59N 33°44' W 118°10'0 0.1
2018-May-30 04:17N 33°44' W 118°10'0 0.1
2018-May-30 03:50N 33°44' W 118°10'0 0.4
2018-May-30 03:30N 33°44' W 118°10'4 7.5
2018-May-30 03:00N 33°43' W 118°14'3 5.1
2018-May-30 02:30N 33°45' W 118°17'1 1.1
2018-May-30 01:59N 33°45' W 118°16'0 0.0
2018-May-30 01:29N 33°45' W 118°16'0 0.0
2018-May-30 00:59N 33°45' W 118°16'0 0.0
2018-May-30 00:26N 33°45' W 118°16'0 0.0
2018-May-29 23:59N 33°45' W 118°16'0 0.0
2018-May-29 23:29N 33°45' W 118°16'0 0.0
2018-May-29 22:59N 33°45' W 118°16'0 0.0
2018-May-29 22:29N 33°45' W 118°16'0 0.0
2018-May-29 21:59N 33°45' W 118°16'0 0.0
2018-May-29 21:29N 33°45' W 118°16'0 0.0
2018-May-29 20:59N 33°45' W 118°16'0 0.0
2018-May-29 20:29N 33°45' W 118°16'0 0.0
2018-May-29 19:59N 33°45' W 118°16'0 0.0
2018-May-29 19:29N 33°45' W 118°16'0 0.0
2018-May-29 18:59N 33°45' W 118°16'0 0.0
2018-May-29 18:29N 33°45' W 118°16'0 0.0
2018-May-29 17:59N 33°45' W 118°16'0 0.0
2018-May-29 17:29N 33°45' W 118°16'0 0.0
2018-May-29 16:59N 33°45' W 118°16'0 0.0
2018-May-29 16:29N 33°45' W 118°16'0 0.0
2018-May-29 15:59N 33°45' W 118°16'0 0.0
2018-May-29 15:29N 33°45' W 118°16'0 0.0
2018-May-29 14:59N 33°45' W 118°16'0 0.0
2018-May-29 14:29N 33°45' W 118°16'0 0.0
2018-May-29 13:59N 33°45' W 118°16'0 0.0
2018-May-29 13:29N 33°45' W 118°16'0 0.0
2018-May-29 12:59N 33°45' W 118°16'0 0.0
2018-May-29 12:29N 33°45' W 118°16'0 0.0
2018-May-29 11:59N 33°45' W 118°16'0 0.0
2018-May-29 11:29N 33°45' W 118°16'0 0.0
2018-May-29 10:59N 33°45' W 118°16'0 0.0
2018-May-29 10:29N 33°45' W 118°16'0 0.0
2018-May-29 09:59N 33°45' W 118°16'0 0.0
2018-May-29 09:29N 33°45' W 118°16'0 0.0
2018-May-29 08:59N 33°45' W 118°16'0 0.0
2018-May-29 08:29N 33°45' W 118°16'0 0.0
2018-May-29 07:59N 33°45' W 118°16'0 0.0
2018-May-29 07:26N 33°45' W 118°16'0 0.0
2018-May-29 06:59N 33°45' W 118°16'0 0.0
2018-May-29 06:29N 33°45' W 118°16'0 0.0
2018-May-29 05:59N 33°45' W 118°16'0 0.0
2018-May-29 05:29N 33°45' W 118°16'0 0.0
2018-May-29 04:59N 33°45' W 118°16'0 0.0
2018-May-29 04:29N 33°45' W 118°16'0 0.0
2018-May-29 03:59N 33°45' W 118°16'0 0.0
2018-May-29 03:29N 33°45' W 118°16'0 0.0
2018-May-29 02:59N 33°45' W 118°16'0 0.0
2018-May-29 02:29N 33°45' W 118°16'0 0.0
2018-May-29 01:59N 33°45' W 118°16'0 0.0
2018-May-29 01:29N 33°45' W 118°16'0 0.0
2018-May-29 00:59N 33°45' W 118°16'0 0.0
2018-May-29 00:29N 33°45' W 118°16'0 0.0
2018-May-28 23:59N 33°45' W 118°16'0 0.0
2018-May-28 23:29N 33°45' W 118°16'0 0.0
2018-May-28 22:59N 33°45' W 118°16'0 0.0
2018-May-28 22:29N 33°45' W 118°16'0 0.0
2018-May-28 21:59N 33°45' W 118°16'0 0.0
2018-May-28 21:29N 33°45' W 118°16'0 0.1
2018-May-28 20:59N 33°45' W 118°17'0 0.1
2018-May-28 20:28N 33°45' W 118°16'0 0.0
2018-May-28 19:59N 33°45' W 118°16'0 0.0
2018-May-28 19:29N 33°45' W 118°16'0 0.0
2018-May-28 18:59N 33°45' W 118°16'0 0.0
2018-May-28 18:28N 33°45' W 118°16'0 0.0
2018-May-28 17:59N 33°45' W 118°16'0 0.0
2018-May-28 17:29N 33°45' W 118°16'0 0.0
2018-May-28 16:59N 33°45' W 118°16'0 0.0
2018-May-28 16:29N 33°45' W 118°16'0 0.0
2018-May-28 15:59N 33°45' W 118°16'0 0.0
2018-May-28 15:29N 33°45' W 118°16'0 0.0
2018-May-28 14:59N 33°45' W 118°16'0 0.0
2018-May-28 14:29N 33°45' W 118°16'0 0.0
2018-May-28 13:58N 33°45' W 118°16'0 0.0
2018-May-28 13:28N 33°45' W 118°16'0 0.0
2018-May-28 12:56N 33°45' W 118°16'0 0.0
2018-May-28 12:29N 33°45' W 118°16'0 0.0
2018-May-28 11:58N 33°45' W 118°16'0 0.0
2018-May-28 11:28N 33°45' W 118°16'0 0.0
2018-May-28 10:59N 33°45' W 118°16'0 0.0
2018-May-28 10:29N 33°45' W 118°16'0 0.0
2018-May-28 09:59N 33°45' W 118°16'0 0.0
2018-May-28 09:29N 33°45' W 118°16'0 0.0
2018-May-28 08:58N 33°45' W 118°16'0 0.0
2018-May-28 08:29N 33°45' W 118°16'0 0.0
2018-May-28 07:56N 33°45' W 118°16'0 0.0
2018-May-28 07:29N 33°45' W 118°16'0 0.0
2018-May-28 06:58N 33°45' W 118°16'0 0.0
2018-May-28 06:28N 33°45' W 118°16'0 0.0
2018-May-28 05:58N 33°45' W 118°16'0 0.0
2018-May-28 05:28N 33°45' W 118°16'0 0.0
2018-May-28 04:58N 33°45' W 118°16'0 0.0
2018-May-28 04:28N 33°45' W 118°16'0 0.0
2018-May-28 03:59N 33°45' W 118°16'0 0.0
2018-May-28 03:28N 33°45' W 118°16'0 0.0
2018-May-28 02:58N 33°45' W 118°16'0 0.0
2018-May-28 02:28N 33°45' W 118°16'0 0.0
2018-May-28 01:58N 33°45' W 118°16'0 0.0
2018-May-28 01:28N 33°45' W 118°16'0 0.0
2018-May-28 00:58N 33°45' W 118°16'0 0.0
2018-May-28 00:28N 33°45' W 118°16'0 0.0
2018-May-27 23:59N 33°45' W 118°16'0 0.1
2018-May-27 23:28N 33°45' W 118°17'0 0.1
2018-May-27 22:58N 33°45' W 118°16'0 0.0
2018-May-27 22:28N 33°45' W 118°16'0 0.0
2018-May-27 21:58N 33°45' W 118°16'0 0.0
2018-May-27 21:28N 33°45' W 118°16'0 0.0
2018-May-27 20:58N 33°45' W 118°16'0 0.0
2018-May-27 20:28N 33°45' W 118°16'0 0.0
2018-May-27 19:58N 33°45' W 118°16'0 0.0
2018-May-27 19:28N 33°45' W 118°16'0 0.0
2018-May-27 18:58N 33°45' W 118°16'0 0.0
2018-May-27 18:28N 33°45' W 118°16'0 0.0
2018-May-27 17:58N 33°45' W 118°16'0 0.0
2018-May-27 17:28N 33°45' W 118°16'0 0.0
2018-May-27 16:58N 33°45' W 118°16'0 0.0
2018-May-27 16:28N 33°45' W 118°16'0 0.0
2018-May-27 15:58N 33°45' W 118°16'0 0.0
2018-May-27 15:28N 33°45' W 118°16'0 0.0
2018-May-27 14:58N 33°45' W 118°16'0 0.0
2018-May-27 14:28N 33°45' W 118°16'0 0.0
2018-May-27 13:55N 33°45' W 118°16'0 0.0
2018-May-27 13:28N 33°45' W 118°16'0 0.0
2018-May-27 12:58N 33°45' W 118°16'0 0.0
2018-May-27 12:28N 33°45' W 118°16'0 0.0
2018-May-27 12:01N 33°45' W 118°16'0 0.4
2018-May-27 11:31N 33°45' W 118°16'2 4.8
2018-May-27 11:01N 33°43' W 118°15'3 4.9
2018-May-27 10:30N 33°43' W 118°12'1 1.0
2018-May-27 09:58N 33°43' W 118°12'0 0.0
2018-May-27 09:25N 33°43' W 118°12'0 0.0
2018-May-27 08:46N 33°43' W 118°12'0 0.1
2018-May-27 08:25N 33°43' W 118°12'0 0.1
2018-May-27 07:58N 33°43' W 118°12'0 0.0
2018-May-27 07:28N 33°43' W 118°12'0 0.0
2018-May-27 06:58N 33°43' W 118°12'0 0.0
2018-May-27 06:28N 33°43' W 118°12'0 0.0
2018-May-27 05:55N 33°43' W 118°12'0 0.0
2018-May-27 05:25N 33°43' W 118°12'0 0.1
2018-May-27 04:40N 33°43' W 118°12'0 0.0
2018-May-27 04:22N 33°43' W 118°12'0 0.0
2018-May-27 03:52N 33°43' W 118°12'0 0.1
2018-May-27 03:28N 33°43' W 118°12'0 0.0
2018-May-27 02:58N 33°43' W 118°12'0 0.0
2018-May-27 02:28N 33°43' W 118°12'0 0.1
2018-May-27 01:58N 33°43' W 118°12'0 0.0
2018-May-27 01:28N 33°43' W 118°12'0 0.0
2018-May-27 00:58N 33°43' W 118°12'0 0.0
2018-May-27 00:28N 33°43' W 118°12'0 0.0
2018-May-26 23:58N 33°43' W 118°12'0 0.0
2018-May-26 23:28N 33°43' W 118°12'0 0.0
2018-May-26 22:58N 33°43' W 118°12'0 0.0
2018-May-26 22:28N 33°43' W 118°12'0 0.0
2018-May-26 21:55N 33°43' W 118°12'0 0.1
2018-May-26 21:28N 33°43' W 118°12'0 0.2
2018-May-26 20:58N 33°43' W 118°12'0 1.0
2018-May-26 20:30N 33°42' W 118°12'4 7.3
2018-May-26 20:01N 33°39' W 118°13'5 9.4
2018-May-26 19:31N 33°36' W 118°18'611.2
2018-May-26 18:59N 33°36' W 118°25'510.9
2018-May-26 18:30N 33°36' W 118°32'  

Dump ship's entire track history